Southampton, Pennsylvania
Current Conditions -  °F | °C
As of 6:54 AM on Thursday 23 Oct 2014 (Local Time) from KPNE Reporting Station
Light Rain Light Rain  
Wind Chill: 52°   Ceiling: 3400
Heat Index: 52°   Visibility: 7mi
Dew Point: 46°   Wind: 10mph
Humidity: 80%   Direction: 330°NNW
Pressure: 29.77"   Gusts: NA
Location:  40.17°N, 75.04°W
Report Text: KPNE 231054Z 33009KT 7SM -RA SCT028 OVC034 11/08 A2977 RMK AO2 SLP080 P0003 T01110078 $
Loading
Personal Weather Stations






























Interactive Weather Map
Tropical Storm Tracking
New forecast layout! Learn more

10-Day Weather Forecast

Advertisements
Track Severe Weather on mobile